Time;durP1;ratioP1;P1;durP2;ratioP2;P2;SDS_P1;SDS_P2;PMS_P1;PMS_P2;Temp;Humidity;BMP_temperature;BMP_pressure;BME280_temperature;BME280_humidity;BME280_pressure;Samples;Min_cycle;Max_cycle;Signal;HPM_P1;HPM_P2
2023/06/23 00:00:46;;;;;;;3.30;2.23;;;20.70;99.90;;;;;;5047381;28;20423;-73
2023/06/23 00:03:31;;;;;;;5.47;3.23;;;20.70;99.90;;;;;;5046124;28;20468;-73
2023/06/23 00:06:17;;;;;;;4.53;3.50;;;20.60;99.90;;;;;;5043683;28;20448;-73
2023/06/23 00:09:07;;;;;;;4.33;3.13;;;20.60;99.90;;;;;;5048342;28;20497;-73
2023/06/23 00:11:53;;;;;;;5.60;2.90;;;20.50;99.90;;;;;;5050844;28;20919;-73
2023/06/23 00:14:40;;;;;;;4.13;3.30;;;20.60;99.90;;;;;;5039789;28;20518;-73
2023/06/23 00:17:25;;;;;;;4.07;3.33;;;20.60;99.90;;;;;;5048329;28;20806;-73
2023/06/23 00:20:13;;;;;;;4.40;3.40;;;20.60;99.90;;;;;;5040263;28;20456;-73
2023/06/23 00:22:58;;;;;;;5.83;3.97;;;20.70;99.90;;;;;;5047614;28;20810;-73
2023/06/23 00:25:44;;;;;;;6.13;3.67;;;20.80;99.90;;;;;;5047126;28;20452;-73
2023/06/23 00:28:29;;;;;;;5.10;3.13;;;20.80;99.90;;;;;;5045423;28;20900;-72
2023/06/23 00:31:16;;;;;;;3.93;2.87;;;20.80;99.90;;;;;;5046596;28;20498;-73
2023/06/23 00:34:02;;;;;;;3.97;3.10;;;20.70;99.90;;;;;;5044018;28;20487;-75
2023/06/23 00:36:47;;;;;;;5.53;4.13;;;20.60;99.90;;;;;;5050274;28;20555;-73
2023/06/23 00:39:33;;;;;;;7.77;3.67;;;20.50;99.90;;;;;;5045574;28;21083;-73
2023/06/23 00:42:18;;;;;;;4.60;3.20;;;20.60;99.90;;;;;;5041612;28;20441;-73
2023/06/23 00:45:06;;;;;;;4.67;3.63;;;20.60;99.90;;;;;;5046604;28;20472;-74
2023/06/23 00:47:53;;;;;;;5.40;3.90;;;20.60;99.90;;;;;;5050137;28;20969;-73
2023/06/23 00:50:38;;;;;;;4.37;3.17;;;20.70;99.90;;;;;;5045369;28;20468;-73
2023/06/23 00:53:24;;;;;;;4.70;4.03;;;20.80;99.90;;;;;;5045507;28;20973;-73
2023/06/23 00:56:09;;;;;;;4.43;3.60;;;20.80;99.90;;;;;;5046395;28;20443;-74
2023/06/23 00:58:55;;;;;;;4.33;3.30;;;20.80;99.90;;;;;;5042168;28;20834;-74
2023/06/23 01:01:40;;;;;;;5.40;3.60;;;20.90;99.90;;;;;;5042454;28;20574;-73
2023/06/23 01:04:28;;;;;;;5.10;3.87;;;20.80;99.90;;;;;;5038611;28;20468;-73
2023/06/23 01:07:17;;;;;;;4.80;3.70;;;20.80;99.90;;;;;;5045858;28;20444;-73
2023/06/23 01:10:07;;;;;;;6.30;4.30;;;20.50;99.90;;;;;;5046005;28;20491;-73
2023/06/23 01:13:04;;;;;;;5.73;4.50;;;20.30;99.90;;;;;;5037639;28;20523;-73
2023/06/23 01:15:52;;;;;;;7.17;5.60;;;20.40;99.90;;;;;;5045739;28;20522;-75
2023/06/23 01:18:47;;;;;;;6.13;4.93;;;20.30;99.90;;;;;;5044825;28;20466;-74
2023/06/23 01:21:40;;;;;;;6.20;4.73;;;20.20;99.90;;;;;;5044974;28;20443;-74
2023/06/23 01:24:39;;;;;;;6.27;4.90;;;20.30;99.90;;;;;;5043962;28;21071;-74
2023/06/23 01:27:39;;;;;;;6.27;4.93;;;20.20;99.90;;;;;;5052114;28;20522;-74
2023/06/23 01:30:29;;;;;;;7.03;5.20;;;20.30;99.90;;;;;;5047413;28;20471;-74
2023/06/23 01:33:19;;;;;;;8.20;5.33;;;20.10;99.90;;;;;;5043331;28;20579;-74
2023/06/23 01:36:11;;;;;;;6.97;5.60;;;20.00;99.90;;;;;;5048009;28;20826;-73
2023/06/23 01:39:03;;;;;;;7.83;6.00;;;20.00;99.90;;;;;;5031084;28;20449;-74
2023/06/23 01:41:54;;;;;;;7.30;5.30;;;20.20;99.90;;;;;;5031055;28;20413;-74
2023/06/23 01:44:42;;;;;;;6.27;5.43;;;20.30;99.90;;;;;;5050035;28;20618;-73
2023/06/23 01:47:33;;;;;;;7.10;4.93;;;20.30;99.90;;;;;;5033788;28;20556;-73
2023/06/23 01:50:21;;;;;;;6.53;5.10;;;20.20;99.90;;;;;;5048906;28;20467;-73
2023/06/23 01:53:08;;;;;;;6.60;5.30;;;20.10;99.90;;;;;;5050553;28;20623;-73
2023/06/23 01:55:54;;;;;;;6.40;5.47;;;20.10;99.90;;;;;;5036149;28;20519;-73
2023/06/23 01:58:41;;;;;;;7.20;5.40;;;20.10;99.90;;;;;;5029792;28;20452;-73
2023/06/23 02:01:28;;;;;;;8.30;4.93;;;20.10;99.90;;;;;;5035817;28;20445;-73
2023/06/23 02:04:17;;;;;;;7.73;5.30;;;20.20;99.90;;;;;;5041705;28;20448;-73
2023/06/23 02:07:03;;;;;;;6.53;5.57;;;20.20;99.90;;;;;;5043924;28;20966;-74
2023/06/23 02:09:50;;;;;;;8.57;6.00;;;20.20;99.90;;;;;;5031520;28;20449;-74
2023/06/23 02:12:38;;;;;;;6.47;4.90;;;20.30;99.90;;;;;;5030217;28;20468;-74
2023/06/23 02:15:24;;;;;;;7.10;5.37;;;20.30;99.90;;;;;;5041746;28;20455;-75
2023/06/23 02:18:11;;;;;;;9.50;5.57;;;20.30;99.90;;;;;;5040804;28;20534;-74
2023/06/23 02:20:59;;;;;;;8.27;6.30;;;20.30;99.90;;;;;;5041386;28;20520;-74
2023/06/23 02:23:44;;;;;;;6.30;5.40;;;20.20;99.90;;;;;;5049659;28;20479;-73
2023/06/23 02:26:31;;;;;;;7.80;6.20;;;20.20;99.90;;;;;;5048088;28;20440;-73
2023/06/23 02:29:18;;;;;;;7.20;6.07;;;20.10;99.90;;;;;;5049598;28;20512;-74
2023/06/23 02:32:04;;;;;;;8.67;6.30;;;20.10;99.90;;;;;;5051527;28;20479;-73
2023/06/23 02:34:49;;;;;;;9.13;5.60;;;20.20;99.90;;;;;;5050207;28;20467;-73
2023/06/23 02:37:39;;;;;;;8.43;6.47;;;20.30;99.90;;;;;;5043402;28;20451;-74
2023/06/23 02:40:27;;;;;;;7.77;6.20;;;20.30;99.90;;;;;;5045707;28;20444;-74
2023/06/23 02:43:18;;;;;;;8.73;6.80;;;20.30;99.90;;;;;;5038320;28;20452;-73
2023/06/23 02:46:06;;;;;;;7.77;6.07;;;20.20;99.90;;;;;;5048820;28;20506;-73
2023/06/23 02:48:56;;;;;;;8.77;6.90;;;20.10;99.90;;;;;;5034433;28;20919;-73
2023/06/23 02:51:44;;;;;;;8.73;6.10;;;20.10;99.90;;;;;;5046462;28;21029;-73
2023/06/23 02:54:36;;;;;;;6.80;5.97;;;20.10;99.90;;;;;;5047689;28;20468;-73
2023/06/23 02:57:24;;;;;;;6.90;6.10;;;20.10;99.90;;;;;;5046989;28;20447;-73
2023/06/23 03:00:19;;;;;;;8.77;6.30;;;20.00;99.90;;;;;;5045078;28;20584;-73
2023/06/23 03:03:08;;;;;;;8.10;6.00;;;20.20;99.90;;;;;;5035620;28;20958;-73
2023/06/23 03:05:56;;;;;;;7.20;5.80;;;20.10;99.90;;;;;;5047698;28;20899;-73
2023/06/23 03:08:42;;;;;;;8.60;5.50;;;20.10;99.90;;;;;;5040060;28;20585;-74
2023/06/23 03:11:30;;;;;;;7.93;5.87;;;20.20;99.90;;;;;;5034226;28;20515;-74
2023/06/23 03:14:15;;;;;;;7.10;5.80;;;20.30;99.90;;;;;;5042362;28;20468;-75
2023/06/23 03:17:04;;;;;;;11.20;6.83;;;20.30;99.90;;;;;;5044074;28;20447;-74
2023/06/23 03:19:55;;;;;;;8.50;5.83;;;20.20;99.90;;;;;;5049708;28;20455;-74
2023/06/23 03:22:48;;;;;;;7.30;5.30;;;20.30;99.90;;;;;;5051858;28;20590;-73
2023/06/23 03:25:33;;;;;;;6.60;5.60;;;20.30;99.90;;;;;;5035515;28;20448;-74
2023/06/23 03:28:26;;;;;;;6.50;5.33;;;20.40;99.90;;;;;;5039385;28;20830;-74
2023/06/23 03:31:15;;;;;;;7.20;5.63;;;20.50;99.90;;;;;;5050998;28;20582;-73
2023/06/23 03:34:02;;;;;;;7.43;5.90;;;20.60;99.90;;;;;;5033577;28;21033;-73
2023/06/23 03:36:49;;;;;;;7.93;6.17;;;20.30;99.90;;;;;;5046139;28;20820;-73
2023/06/23 03:39:40;;;;;;;7.63;5.87;;;20.20;99.90;;;;;;5042208;28;20969;-73
2023/06/23 03:42:25;;;;;;;8.00;6.50;;;20.20;99.90;;;;;;5046965;28;20502;-73
2023/06/23 03:45:14;;;;;;;13.67;6.73;;;20.10;99.90;;;;;;5048845;28;20829;-73
2023/06/23 03:48:03;;;;;;;8.60;6.40;;;20.20;99.90;;;;;;5048348;28;21023;-73
2023/06/23 03:50:51;;;;;;;10.10;7.10;;;20.10;99.90;;;;;;5052174;28;20566;-73
2023/06/23 03:53:38;;;;;;;15.87;8.47;;;20.10;99.90;;;;;;5045567;28;20443;-74
2023/06/23 03:56:26;;;;;;;9.57;7.37;;;20.10;99.90;;;;;;5048105;28;20455;-73
2023/06/23 03:59:12;;;;;;;11.37;7.90;;;20.10;99.90;;;;;;5033610;28;20499;-73
2023/06/23 04:02:01;;;;;;;10.70;8.03;;;20.00;99.90;;;;;;5032150;28;20444;-74
2023/06/23 04:04:48;;;;;;;11.27;9.37;;;20.00;99.90;;;;;;5041180;28;20491;-74
2023/06/23 04:07:35;;;;;;;11.93;9.40;;;20.00;99.90;;;;;;5050283;28;20419;-73
2023/06/23 04:10:21;;;;;;;14.70;9.67;;;19.60;99.90;;;;;;5047654;28;20427;-75
2023/06/23 04:13:09;;;;;;;12.97;10.00;;;19.50;99.90;;;;;;5049223;28;20448;-75
2023/06/23 04:15:57;;;;;;;14.33;10.83;;;19.40;99.90;;;;;;5036216;28;21009;-75
2023/06/23 04:18:47;;;;;;;10.80;9.70;;;19.30;99.90;;;;;;5034558;28;20946;-75
2023/06/23 04:21:34;;;;;;;16.00;11.27;;;19.30;99.90;;;;;;5049486;28;20431;-76
2023/06/23 04:24:20;;;;;;;12.27;10.40;;;19.30;99.90;;;;;;5041636;28;20952;-75
2023/06/23 04:27:08;;;;;;;11.20;9.37;;;19.20;99.90;;;;;;5041469;28;20512;-75
2023/06/23 04:29:55;;;;;;;12.80;11.50;;;19.20;99.90;;;;;;5035052;28;20444;-75
2023/06/23 04:32:41;;;;;;;13.00;10.23;;;19.30;99.90;;;;;;5031355;28;20498;-75
2023/06/23 04:35:28;;;;;;;11.90;10.70;;;19.40;99.90;;;;;;5048327;28;20956;-75
2023/06/23 04:38:15;;;;;;;10.50;9.50;;;19.40;99.90;;;;;;5031951;28;20425;-75
2023/06/23 04:41:07;;;;;;;14.63;10.20;;;19.40;99.90;;;;;;5032332;28;20462;-74
2023/06/23 04:43:54;;;;;;;11.00;9.50;;;19.30;99.90;;;;;;5031355;28;20444;-74
2023/06/23 04:46:42;;;;;;;13.53;10.57;;;19.30;99.90;;;;;;5034953;28;20452;-74
2023/06/23 04:49:30;;;;;;;12.10;10.87;;;19.30;99.90;;;;;;5034802;28;20426;-74
2023/06/23 04:52:19;;;;;;;13.60;10.03;;;19.40;99.90;;;;;;5035567;28;20504;-76
2023/06/23 04:55:08;;;;;;;12.03;10.83;;;19.50;99.90;;;;;;5046973;28;20832;-75
2023/06/23 04:57:55;;;;;;;13.77;10.83;;;19.50;99.90;;;;;;5046672;28;20954;-74
2023/06/23 05:00:42;;;;;;;13.57;9.37;;;19.50;99.90;;;;;;5041212;28;20448;-75
2023/06/23 05:03:28;;;;;;;16.43;10.47;;;19.40;99.90;;;;;;5042405;28;20972;-76
2023/06/23 05:06:17;;;;;;;16.63;10.27;;;19.30;99.90;;;;;;5044027;28;20457;-75
2023/06/23 05:09:05;;;;;;;12.20;10.43;;;19.30;99.90;;;;;;5038024;28;20452;-74
2023/06/23 05:11:53;;;;;;;13.40;11.57;;;19.30;99.90;;;;;;5031192;28;20608;-75
2023/06/23 05:14:40;;;;;;;16.17;10.60;;;19.40;99.90;;;;;;5038360;28;20583;-74
2023/06/23 05:17:27;;;;;;;12.53;11.20;;;19.40;99.90;;;;;;5031819;28;20555;-74
2023/06/23 05:20:13;;;;;;;15.23;12.20;;;19.30;99.90;;;;;;5038254;28;20795;-75
2023/06/23 05:23:02;;;;;;;11.70;10.20;;;19.30;99.90;;;;;;5030393;28;21076;-76
2023/06/23 05:25:51;;;;;;;18.60;11.80;;;19.40;99.90;;;;;;5039286;28;20514;-74
2023/06/23 05:28:39;;;;;;;19.30;10.07;;;19.40;99.90;;;;;;5030910;28;20477;-75
2023/06/23 05:31:26;;;;;;;11.67;9.03;;;19.40;99.90;;;;;;5048556;28;21103;-75
2023/06/23 05:34:16;;;;;;;13.37;9.90;;;19.60;99.90;;;;;;5041124;28;20492;-75
2023/06/23 05:37:04;;;;;;;14.70;9.17;;;19.50;99.90;;;;;;5033518;28;20449;-74
2023/06/23 05:39:51;;;;;;;10.20;7.47;;;19.50;99.90;;;;;;5041944;28;20445;-75
2023/06/23 05:42:38;;;;;;;12.27;8.80;;;19.40;99.90;;;;;;5049604;28;20534;-75
2023/06/23 05:45:24;;;;;;;10.67;7.97;;;19.30;99.90;;;;;;5041077;28;20459;-74
2023/06/23 05:48:14;;;;;;;10.47;7.23;;;19.30;99.90;;;;;;5039547;28;20452;-74
2023/06/23 05:51:02;;;;;;;8.90;7.80;;;19.30;99.90;;;;;;5031621;28;20453;-74
2023/06/23 05:53:52;;;;;;;8.77;7.10;;;19.30;99.90;;;;;;5035915;28;20933;-74
2023/06/23 05:56:43;;;;;;;8.60;7.60;;;19.30;99.90;;;;;;5034876;28;20496;-74
2023/06/23 05:59:38;;;;;;;8.90;7.10;;;19.20;99.90;;;;;;5037970;28;20437;-74
2023/06/23 06:02:25;;;;;;;10.07;7.43;;;19.20;99.90;;;;;;5052796;28;20518;-75
2023/06/23 06:05:16;;;;;;;10.43;7.53;;;19.30;99.90;;;;;;5038722;28;20938;-74
2023/06/23 06:08:02;;;;;;;8.77;6.53;;;19.10;99.90;;;;;;5047285;28;20452;-74
2023/06/23 06:10:49;;;;;;;7.27;6.50;;;19.10;99.90;;;;;;5046233;28;20456;-74
2023/06/23 06:13:37;;;;;;;7.53;6.57;;;19.10;99.90;;;;;;5034498;28;20456;-75
2023/06/23 06:16:25;;;;;;;11.17;7.00;;;19.10;99.90;;;;;;5053855;28;20494;-74
2023/06/23 06:19:13;;;;;;;9.07;7.37;;;19.20;99.90;;;;;;5048554;28;20414;-75
2023/06/23 06:22:00;;;;;;;7.70;6.60;;;19.10;99.90;;;;;;5050838;28;20419;-75
2023/06/23 06:24:47;;;;;;;8.50;6.43;;;19.10;99.90;;;;;;5054804;22;20470;-70
2023/06/23 06:27:34;;;;;;;9.20;6.73;;;19.10;99.90;;;;;;5031700;28;20456;-70
2023/06/23 06:30:22;;;;;;;11.47;6.90;;;19.10;99.90;;;;;;5028914;28;20444;-70
2023/06/23 06:33:11;;;;;;;9.13;6.40;;;19.20;99.90;;;;;;5033740;28;20467;-71
2023/06/23 06:36:03;;;;;;;11.20;7.87;;;19.30;99.90;;;;;;5015263;28;20473;-70
2023/06/23 06:38:51;;;;;;;8.37;6.20;;;19.20;99.90;;;;;;5012276;28;20589;-69
2023/06/23 06:41:37;;;;;;;8.43;6.73;;;19.20;99.90;;;;;;5011025;28;20411;-70
2023/06/23 06:44:23;;;;;;;10.67;7.77;;;19.30;99.90;;;;;;5010588;28;20839;-70
2023/06/23 06:47:11;;;;;;;7.43;6.07;;;19.40;99.90;;;;;;5004124;28;20449;-70
2023/06/23 06:49:59;;;;;;;7.53;6.73;;;19.50;99.90;;;;;;5015515;28;20457;-70
2023/06/23 06:52:46;;;;;;;8.60;6.17;;;19.50;99.90;;;;;;5009210;28;20473;-70
2023/06/23 06:55:32;;;;;;;10.67;7.03;;;19.60;99.90;;;;;;5002437;28;20470;-69
2023/06/23 06:58:18;;;;;;;10.60;7.97;;;19.80;99.90;;;;;;5007545;28;20448;-70
2023/06/23 07:01:04;;;;;;;11.07;7.10;;;19.90;99.90;;;;;;5001639;28;21362;-70
2023/06/23 07:03:50;;;;;;;8.80;7.43;;;19.70;99.90;;;;;;5019993;28;20442;-69
2023/06/23 07:06:37;;;;;;;10.80;6.30;;;19.60;99.90;;;;;;5010674;28;20458;-69
2023/06/23 07:09:23;;;;;;;8.60;7.37;;;19.60;99.90;;;;;;5003708;28;20457;-69
2023/06/23 07:12:09;;;;;;;8.30;7.13;;;19.50;99.90;;;;;;5020252;28;20510;-69
2023/06/23 07:14:54;;;;;;;9.80;6.47;;;19.60;99.90;;;;;;5007624;28;20440;-69
2023/06/23 07:17:40;;;;;;;8.23;6.80;;;19.60;99.90;;;;;;5007572;28;20500;-69
2023/06/23 07:20:25;;;;;;;6.70;5.80;;;19.70;99.90;;;;;;5009854;28;21095;-70
2023/06/23 07:23:12;;;;;;;9.27;7.10;;;19.80;99.90;;;;;;5013906;28;20442;-69
2023/06/23 07:25:58;;;;;;;7.40;6.00;;;19.90;99.90;;;;;;5010863;28;20821;-70
2023/06/23 07:28:43;;;;;;;7.73;6.97;;;20.00;99.90;;;;;;5008190;28;20457;-70
2023/06/23 07:31:29;;;;;;;9.27;6.20;;;20.20;99.90;;;;;;5006872;28;20812;-69
2023/06/23 07:34:14;;;;;;;10.93;6.57;;;20.40;99.90;;;;;;5010226;28;20814;-70
2023/06/23 07:36:59;;;;;;;7.97;6.23;;;20.50;99.90;;;;;;5013611;28;20974;-70
2023/06/23 07:39:47;;;;;;;8.93;6.27;;;20.60;99.90;;;;;;5008603;28;20522;-70
2023/06/23 07:42:32;;;;;;;14.10;6.53;;;20.50;99.90;;;;;;5010627;28;20446;-70
2023/06/23 07:45:18;;;;;;;10.73;6.53;;;20.50;99.90;;;;;;5007868;28;20993;-70
2023/06/23 07:48:04;;;;;;;10.43;6.50;;;20.50;99.90;;;;;;5007915;28;20954;-70
2023/06/23 07:50:49;;;;;;;8.47;7.07;;;20.50;99.90;;;;;;5009960;28;20449;-70
2023/06/23 07:53:35;;;;;;;11.40;7.00;;;20.70;99.90;;;;;;5005941;28;20476;-70
2023/06/23 07:56:22;;;;;;;9.67;6.70;;;21.00;99.90;;;;;;5008635;28;20458;-70
2023/06/23 07:59:07;;;;;;;10.13;6.27;;;21.10;99.90;;;;;;5008267;28;20521;-70
2023/06/23 08:01:52;;;;;;;11.23;6.60;;;21.10;99.90;;;;;;4999951;28;20544;-70
2023/06/23 08:04:38;;;;;;;8.07;6.57;;;21.00;99.90;;;;;;5007467;28;21104;-70
2023/06/23 08:07:23;;;;;;;9.60;6.20;;;20.90;99.90;;;;;;5004169;28;20443;-70
2023/06/23 08:10:10;;;;;;;7.60;6.80;;;21.10;99.90;;;;;;5008368;28;20788;-69
2023/06/23 08:12:56;;;;;;;7.97;6.00;;;21.20;99.90;;;;;;5009070;28;21006;-70
2023/06/23 08:15:42;;;;;;;7.87;6.57;;;21.30;98.70;;;;;;5005684;28;20470;-69
2023/06/23 08:18:27;;;;;;;10.30;6.00;;;21.50;98.10;;;;;;5004961;28;20889;-70
2023/06/23 08:21:13;;;;;;;6.87;6.17;;;21.60;95.40;;;;;;5005064;28;20783;-71
2023/06/23 08:23:59;;;;;;;6.80;6.00;;;21.50;95.20;;;;;;5015024;28;20449;-70
2023/06/23 08:26:45;;;;;;;8.87;6.33;;;21.50;93.60;;;;;;5006144;28;20469;-70
2023/06/23 08:29:31;;;;;;;9.23;6.40;;;21.50;94.00;;;;;;4999725;28;20545;-70
2023/06/23 08:32:17;;;;;;;7.60;5.70;;;21.40;91.50;;;;;;5017781;28;20508;-70
2023/06/23 08:35:03;;;;;;;8.30;6.17;;;21.50;94.90;;;;;;5006218;28;20566;-70
2023/06/23 08:37:48;;;;;;;10.63;6.20;;;21.40;89.20;;;;;;5018320;28;20446;-70
2023/06/23 08:40:34;;;;;;;10.77;6.07;;;21.40;90.00;;;;;;5007657;28;20453;-70
2023/06/23 08:43:25;;;;;;;9.17;7.50;;;21.50;91.40;;;;;;5008973;28;20437;-70
2023/06/23 08:46:14;;;;;;;10.43;6.90;;;21.60;88.10;;;;;;5008448;28;20454;-70
2023/06/23 08:49:06;;;;;;;8.40;6.33;;;21.30;84.50;;;;;;5003390;28;20446;-70
2023/06/23 08:51:51;;;;;;;11.63;6.07;;;21.30;89.00;;;;;;5003550;28;20450;-71
2023/06/23 08:54:37;;;;;;;9.90;6.60;;;21.40;88.60;;;;;;5008083;28;20485;-71
2023/06/23 08:57:24;;;;;;;10.33;6.90;;;21.30;89.20;;;;;;5008856;28;20820;-71
2023/06/23 09:00:10;;;;;;;7.90;5.83;;;21.20;84.90;;;;;;5007579;28;20456;-71
2023/06/23 09:02:57;;;;;;;9.47;6.30;;;21.20;85.80;;;;;;5010930;28;20505;-71
2023/06/23 09:05:42;;;;;;;8.13;6.70;;;21.10;84.80;;;;;;5009590;28;21057;-71
2023/06/23 09:08:28;;;;;;;9.00;6.20;;;21.10;84.80;;;;;;5010714;28;20445;-71
2023/06/23 09:11:13;;;;;;;7.97;7.17;;;21.30;87.30;;;;;;5008747;28;20449;-72
2023/06/23 09:14:00;;;;;;;10.30;6.03;;;21.60;77.50;;;;;;5002717;28;20651;-71
2023/06/23 09:16:46;;;;;;;9.03;7.00;;;21.70;76.00;;;;;;5005623;28;21049;-71
2023/06/23 09:19:35;;;;;;;8.47;5.83;;;22.00;73.20;;;;;;5009404;28;20449;-71
2023/06/23 09:22:20;;;;;;;7.97;6.70;;;22.00;72.40;;;;;;5002174;28;20465;-71
2023/06/23 09:25:06;;;;;;;8.67;6.23;;;21.90;73.30;;;;;;5003262;28;20497;-71
2023/06/23 09:27:52;;;;;;;6.67;5.37;;;21.90;76.20;;;;;;5003915;28;20900;-70
2023/06/23 09:30:37;;;;;;;8.17;6.50;;;22.00;75.70;;;;;;5014707;28;20517;-71
2023/06/23 09:33:24;;;;;;;8.50;6.70;;;22.00;73.50;;;;;;5009587;28;20509;-71
2023/06/23 09:36:11;;;;;;;6.90;6.10;;;22.10;73.60;;;;;;5006296;28;20599;-71
2023/06/23 09:38:57;;;;;;;11.53;6.27;;;22.10;69.70;;;;;;4999301;28;20442;-71
2023/06/23 09:41:47;;;;;;;10.20;6.70;;;22.20;69.60;;;;;;5008123;28;20445;-71
2023/06/23 09:44:37;;;;;;;9.80;6.40;;;22.40;72.70;;;;;;5006203;28;20462;-71
2023/06/23 09:47:22;;;;;;;7.20;6.27;;;22.60;67.00;;;;;;5002809;28;20454;-72
2023/06/23 09:50:15;;;;;;;7.03;6.13;;;22.80;65.60;;;;;;5006345;28;20508;-71
2023/06/23 09:53:04;;;;;;;6.87;5.53;;;22.80;63.40;;;;;;5019068;28;20472;-71
2023/06/23 09:55:49;;;;;;;14.03;5.53;;;22.70;65.00;;;;;;5010768;28;21002;-71
2023/06/23 09:58:38;;;;;;;11.50;5.33;;;22.70;67.10;;;;;;5008452;28;20477;-72
2023/06/23 10:01:23;;;;;;;7.53;5.63;;;22.80;69.00;;;;;;5009587;28;20453;-71
2023/06/23 10:04:09;;;;;;;7.90;5.43;;;23.00;66.90;;;;;;5009929;28;20528;-71
2023/06/23 10:06:55;;;;;;;7.50;5.23;;;22.80;66.20;;;;;;5004462;28;21043;-72
2023/06/23 10:09:49;;;;;;;6.20;5.30;;;22.70;64.30;;;;;;4995156;28;20500;-71
2023/06/23 10:12:36;;;;;;;6.60;5.40;;;22.80;66.10;;;;;;5008685;28;21025;-71
2023/06/23 10:15:21;;;;;;;8.53;6.17;;;23.00;65.30;;;;;;5008246;28;20829;-71
2023/06/23 10:18:10;;;;;;;12.23;6.30;;;23.20;59.40;;;;;;5008503;28;20596;-71
2023/06/23 10:20:57;;;;;;;9.13;6.07;;;23.10;56.60;;;;;;5009878;28;20453;-71
2023/06/23 10:23:42;;;;;;;10.53;5.90;;;23.00;56.60;;;;;;5010618;28;20497;-71
2023/06/23 10:26:31;;;;;;;7.47;5.83;;;22.90;56.10;;;;;;5008470;28;20966;-71
2023/06/23 10:29:20;;;;;;;9.13;5.70;;;22.80;56.30;;;;;;4994955;28;20428;-71
2023/06/23 10:32:09;;;;;;;7.83;6.03;;;22.80;58.60;;;;;;4990915;28;20423;-71
2023/06/23 10:34:57;;;;;;;10.60;5.23;;;22.90;58.50;;;;;;5006130;28;20461;-71
2023/06/23 10:37:48;;;;;;;5.70;4.80;;;23.10;56.60;;;;;;5008465;28;21034;-71
2023/06/23 10:40:39;;;;;;;7.40;5.40;;;23.30;56.80;;;;;;5008637;28;20449;-71
2023/06/23 10:43:32;;;;;;;6.30;5.10;;;23.30;54.50;;;;;;5014371;28;20805;-71
2023/06/23 10:46:18;;;;;;;9.73;6.20;;;23.00;52.50;;;;;;5013321;28;20461;-71
2023/06/23 10:49:05;;;;;;;5.70;4.63;;;22.80;56.40;;;;;;5013637;28;20426;-71
2023/06/23 10:51:51;;;;;;;7.43;5.67;;;22.80;58.00;;;;;;4994520;28;20443;-72
2023/06/23 10:54:37;;;;;;;7.83;5.30;;;22.80;57.10;;;;;;5007049;28;20552;-72
2023/06/23 10:57:24;;;;;;;5.87;5.27;;;22.90;56.50;;;;;;5012317;28;20454;-71
2023/06/23 11:00:14;;;;;;;8.03;5.90;;;22.90;54.20;;;;;;5010599;28;20453;-71
2023/06/23 11:02:59;;;;;;;8.77;6.27;;;22.80;57.80;;;;;;5012959;28;20481;-71
2023/06/23 11:05:53;;;;;;;7.13;6.43;;;23.00;54.10;;;;;;5012947;28;21048;-72
2023/06/23 11:08:40;;;;;;;6.70;5.60;;;23.00;53.70;;;;;;5008557;28;20631;-70
2023/06/23 11:11:33;;;;;;;8.10;5.60;;;22.90;52.00;;;;;;5008950;28;20961;-71
2023/06/23 11:14:18;;;;;;;7.97;5.20;;;23.00;51.90;;;;;;5010960;28;20616;-70
2023/06/23 11:17:05;;;;;;;6.93;6.13;;;23.20;50.20;;;;;;5020279;28;20438;-71
2023/06/23 11:19:51;;;;;;;7.00;5.97;;;23.20;49.50;;;;;;5007839;28;20450;-71
2023/06/23 11:22:39;;;;;;;6.17;5.07;;;23.00;47.70;;;;;;5012703;28;20521;-71
2023/06/23 11:25:27;;;;;;;6.50;5.03;;;23.10;52.00;;;;;;5009815;28;20477;-72
2023/06/23 11:28:28;;;;;;;7.27;5.23;;;23.10;49.90;;;;;;5014181;28;20489;-71
2023/06/23 11:31:15;;;;;;;6.80;5.57;;;23.00;50.30;;;;;;5021663;28;20543;-71
2023/06/23 11:34:03;;;;;;;7.73;5.80;;;22.90;53.30;;;;;;5006768;28;20998;-70
2023/06/23 11:36:48;;;;;;;12.40;5.37;;;22.70;51.80;;;;;;5009732;28;20457;-71
2023/06/23 11:39:34;;;;;;;7.90;5.03;;;22.60;52.70;;;;;;5008424;28;21316;-71
2023/06/23 11:42:19;;;;;;;7.43;5.00;;;22.70;54.50;;;;;;5006790;28;20818;-71
2023/06/23 11:45:09;;;;;;;6.17;5.03;;;22.80;55.00;;;;;;5008683;28;20469;-71
2023/06/23 11:47:54;;;;;;;9.27;6.50;;;22.80;50.00;;;;;;5011165;28;20446;-71
2023/06/23 11:50:43;;;;;;;8.97;5.70;;;22.90;48.60;;;;;;5008401;28;20819;-71
2023/06/23 11:53:28;;;;;;;8.03;5.43;;;22.90;50.70;;;;;;5018241;28;20538;-71
2023/06/23 11:56:15;;;;;;;5.43;4.57;;;23.00;51.00;;;;;;5003080;28;20524;-71
2023/06/23 11:59:04;;;;;;;5.57;4.80;;;23.10;50.10;;;;;;5005437;28;20442;-70
2023/06/23 12:01:51;;;;;;;6.17;5.17;;;23.20;48.80;;;;;;5006271;28;20442;-71
2023/06/23 12:04:36;;;;;;;8.33;4.97;;;23.20;52.20;;;;;;5002568;28;21197;-71
2023/06/23 12:07:28;;;;;;;8.00;5.43;;;23.20;49.70;;;;;;5008243;28;20813;-70
2023/06/23 12:10:13;;;;;;;13.00;5.03;;;23.10;50.90;;;;;;5007041;28;20458;-70
2023/06/23 12:13:00;;;;;;;8.73;6.07;;;23.00;50.20;;;;;;4998392;28;20451;-70
2023/06/23 12:15:45;;;;;;;7.37;5.30;;;23.00;54.40;;;;;;4987947;28;20583;-71
2023/06/23 12:18:32;;;;;;;7.83;5.70;;;22.90;51.80;;;;;;5005898;28;20499;-69
2023/06/23 12:21:18;;;;;;;6.97;6.00;;;22.90;52.70;;;;;;5002911;28;20602;-70
2023/06/23 12:24:04;;;;;;;7.83;5.50;;;22.90;53.80;;;;;;5003218;28;21558;-70
2023/06/23 12:26:52;;;;;;;9.07;4.80;;;23.10;51.30;;;;;;5005341;28;20445;-70
2023/06/23 12:29:38;;;;;;;7.27;5.27;;;23.30;50.80;;;;;;5009105;28;21242;-70
2023/06/23 12:32:29;;;;;;;5.50;4.80;;;23.50;52.30;;;;;;5005682;28;20918;-71
2023/06/23 12:35:18;;;;;;;10.43;6.00;;;23.40;48.90;;;;;;5003491;28;20481;-70
2023/06/23 12:38:07;;;;;;;6.10;5.40;;;23.20;50.40;;;;;;5000459;28;20978;-71
2023/06/23 12:40:54;;;;;;;9.93;4.77;;;23.20;52.20;;;;;;5001931;28;20442;-70
2023/06/23 12:43:40;;;;;;;5.90;5.00;;;23.40;52.10;;;;;;5003018;28;20461;-71
2023/06/23 12:46:26;;;;;;;6.43;4.80;;;23.50;52.10;;;;;;5005113;28;20573;-70
2023/06/23 12:49:11;;;;;;;6.70;5.30;;;23.50;48.20;;;;;;5001284;28;20457;-70
2023/06/23 12:51:57;;;;;;;6.50;5.40;;;23.60;51.70;;;;;;5006902;28;20572;-70
2023/06/23 12:54:43;;;;;;;7.40;5.60;;;23.60;49.50;;;;;;5009467;28;20482;-70
2023/06/23 12:57:29;;;;;;;8.23;6.30;;;23.80;51.50;;;;;;5006574;28;20488;-70
2023/06/23 13:00:16;;;;;;;5.63;5.03;;;23.90;47.00;;;;;;4999667;28;20445;-71
2023/06/23 13:03:02;;;;;;;6.33;5.20;;;24.10;45.50;;;;;;5004562;28;20438;-70
2023/06/23 13:05:47;;;;;;;6.33;5.63;;;24.20;46.80;;;;;;5006985;28;20565;-71
2023/06/23 13:08:33;;;;;;;12.67;5.30;;;24.60;50.00;;;;;;5007138;28;20955;-70
2023/06/23 13:11:21;;;;;;;8.37;5.00;;;24.80;42.00;;;;;;5006562;28;20955;-71
2023/06/23 13:14:07;;;;;;;6.17;4.60;;;24.90;41.40;;;;;;4997159;28;20485;-70
2023/06/23 13:16:53;;;;;;;6.03;4.90;;;25.00;38.10;;;;;;4996208;28;20424;-70
2023/06/23 13:19:39;;;;;;;7.03;4.93;;;25.10;36.00;;;;;;5005381;28;20586;-70
2023/06/23 13:22:25;;;;;;;6.00;4.93;;;25.50;34.10;;;;;;5009184;28;20972;-71
2023/06/23 13:25:11;;;;;;;6.10;5.20;;;25.70;36.00;;;;;;5008428;28;20485;-70
2023/06/23 13:27:56;;;;;;;5.80;4.53;;;25.80;31.20;;;;;;5009496;28;20952;-70
2023/06/23 13:30:43;;;;;;;5.40;4.37;;;25.40;28.60;;;;;;5007295;28;20445;-70
2023/06/23 13:33:28;;;;;;;8.07;4.27;;;25.00;29.70;;;;;;4995961;28;20928;-71
2023/06/23 13:36:14;;;;;;;7.13;4.33;;;25.00;32.00;;;;;;5005736;28;20517;-70
2023/06/23 13:39:00;;;;;;;5.40;4.40;;;25.00;32.60;;;;;;5012295;28;20457;-71
2023/06/23 13:41:45;;;;;;;4.77;4.10;;;25.10;33.20;;;;;;5007471;28;20434;-70
2023/06/23 13:44:30;;;;;;;7.63;5.70;;;25.30;29.20;;;;;;5008751;28;20471;-70
2023/06/23 13:47:17;;;;;;;5.97;5.07;;;25.40;31.60;;;;;;5009360;28;20450;-70
2023/06/23 13:50:04;;;;;;;5.47;4.40;;;25.70;30.20;;;;;;5003877;28;20581;-71
2023/06/23 13:52:49;;;;;;;12.30;4.60;;;26.00;27.20;;;;;;5000393;28;20456;-70
2023/06/23 13:55:35;;;;;;;6.87;4.57;;;26.00;27.40;;;;;;5004850;28;20482;-70
2023/06/23 13:58:21;;;;;;;11.80;4.20;;;26.20;24.40;;;;;;5009811;28;21006;-70
2023/06/23 14:01:06;;;;;;;5.80;3.70;;;26.60;25.30;;;;;;5002655;28;20986;-71
2023/06/23 14:03:53;;;;;;;7.83;5.20;;;26.90;23.10;;;;;;5003364;28;20455;-70
2023/06/23 14:06:39;;;;;;;5.67;3.97;;;27.00;22.80;;;;;;5004975;28;20453;-70
2023/06/23 14:09:24;;;;;;;10.00;4.03;;;26.90;21.40;;;;;;5006352;28;20456;-71
2023/06/23 14:12:10;;;;;;;6.17;4.13;;;26.90;23.00;;;;;;5004664;28;20460;-70
2023/06/23 14:14:55;;;;;;;7.40;4.40;;;26.90;20.20;;;;;;5010383;28;20592;-71
2023/06/23 14:17:41;;;;;;;5.20;4.00;;;26.90;22.20;;;;;;5011697;28;20451;-70
2023/06/23 14:20:28;;;;;;;7.93;3.83;;;26.90;22.10;;;;;;5009723;28;20454;-70
2023/06/23 14:23:13;;;;;;;7.50;4.10;;;26.80;23.90;;;;;;5013210;28;20461;-70
2023/06/23 14:25:59;;;;;;;7.20;4.13;;;26.70;22.90;;;;;;5004814;28;20971;-70